sensor_id;sensor_type;location;lat;lon;timestamp;P1;durP1;ratioP1;P2;durP2;ratioP2
73585;SDS011;61865;50.232;18.614;2022-08-21T00:01:24;14.80;;;10.00;;
73585;SDS011;61865;50.232;18.614;2022-08-21T00:03:49;16.33;;;10.93;;
73585;SDS011;61865;50.232;18.614;2022-08-21T00:06:11;14.63;;;9.65;;
73585;SDS011;61865;50.232;18.614;2022-08-21T00:08:33;14.65;;;10.18;;
73585;SDS011;61865;50.232;18.614;2022-08-21T00:10:55;12.98;;;9.00;;
73585;SDS011;61865;50.232;18.614;2022-08-21T00:13:18;13.88;;;8.10;;
73585;SDS011;61865;50.232;18.614;2022-08-21T00:15:41;13.65;;;7.57;;
73585;SDS011;61865;50.232;18.614;2022-08-21T00:18:03;13.38;;;8.55;;
73585;SDS011;61865;50.232;18.614;2022-08-21T00:20:27;11.10;;;8.52;;
73585;SDS011;61865;50.232;18.614;2022-08-21T00:22:50;11.48;;;7.97;;
73585;SDS011;61865;50.232;18.614;2022-08-21T00:25:13;10.30;;;7.30;;
73585;SDS011;61865;50.232;18.614;2022-08-21T00:27:35;10.40;;;6.95;;
73585;SDS011;61865;50.232;18.614;2022-08-21T00:29:58;11.02;;;6.57;;
73585;SDS011;61865;50.232;18.614;2022-08-21T00:32:20;13.98;;;7.75;;
73585;SDS011;61865;50.232;18.614;2022-08-21T00:34:43;11.77;;;8.00;;
73585;SDS011;61865;50.232;18.614;2022-08-21T00:37:06;10.73;;;7.05;;
73585;SDS011;61865;50.232;18.614;2022-08-21T00:39:28;15.55;;;7.97;;
73585;SDS011;61865;50.232;18.614;2022-08-21T00:41:49;15.35;;;7.50;;
73585;SDS011;61865;50.232;18.614;2022-08-21T00:44:12;10.30;;;7.70;;
73585;SDS011;61865;50.232;18.614;2022-08-21T00:46:35;10.35;;;7.70;;
73585;SDS011;61865;50.232;18.614;2022-08-21T00:48:58;9.68;;;7.22;;
73585;SDS011;61865;50.232;18.614;2022-08-21T00:51:23;9.63;;;6.60;;
73585;SDS011;61865;50.232;18.614;2022-08-21T00:53:49;13.13;;;6.85;;
73585;SDS011;61865;50.232;18.614;2022-08-21T00:56:15;9.32;;;6.30;;
73585;SDS011;61865;50.232;18.614;2022-08-21T00:58:37;12.98;;;7.22;;
73585;SDS011;61865;50.232;18.614;2022-08-21T01:01:03;11.30;;;8.07;;
73585;SDS011;61865;50.232;18.614;2022-08-21T01:03:26;12.57;;;7.82;;
73585;SDS011;61865;50.232;18.614;2022-08-21T01:05:48;14.38;;;8.77;;
73585;SDS011;61865;50.232;18.614;2022-08-21T01:08:10;12.18;;;8.52;;
73585;SDS011;61865;50.232;18.614;2022-08-21T01:10:34;14.20;;;9.13;;
73585;SDS011;61865;50.232;18.614;2022-08-21T01:12:56;10.90;;;7.28;;
73585;SDS011;61865;50.232;18.614;2022-08-21T01:15:19;11.13;;;7.57;;
73585;SDS011;61865;50.232;18.614;2022-08-21T01:17:42;11.00;;;7.05;;
73585;SDS011;61865;50.232;18.614;2022-08-21T01:20:05;11.57;;;6.70;;
73585;SDS011;61865;50.232;18.614;2022-08-21T01:22:31;12.10;;;6.47;;
73585;SDS011;61865;50.232;18.614;2022-08-21T01:24:53;9.88;;;6.68;;
73585;SDS011;61865;50.232;18.614;2022-08-21T01:27:15;12.73;;;5.90;;
73585;SDS011;61865;50.232;18.614;2022-08-21T01:29:38;8.27;;;5.13;;
73585;SDS011;61865;50.232;18.614;2022-08-21T01:32:05;10.18;;;4.90;;
73585;SDS011;61865;50.232;18.614;2022-08-21T01:34:30;8.75;;;4.93;;
73585;SDS011;61865;50.232;18.614;2022-08-21T01:36:53;8.60;;;5.30;;
73585;SDS011;61865;50.232;18.614;2022-08-21T01:39:16;12.75;;;4.88;;
73585;SDS011;61865;50.232;18.614;2022-08-21T01:41:38;6.50;;;4.55;;
73585;SDS011;61865;50.232;18.614;2022-08-21T01:44:00;8.02;;;4.88;;
73585;SDS011;61865;50.232;18.614;2022-08-21T01:46:22;9.23;;;4.50;;
73585;SDS011;61865;50.232;18.614;2022-08-21T01:48:43;9.35;;;4.82;;
73585;SDS011;61865;50.232;18.614;2022-08-21T01:51:07;6.80;;;4.13;;
73585;SDS011;61865;50.232;18.614;2022-08-21T01:53:29;10.07;;;4.30;;
73585;SDS011;61865;50.232;18.614;2022-08-21T01:55:52;5.25;;;3.92;;
73585;SDS011;61865;50.232;18.614;2022-08-21T01:58:14;7.15;;;3.90;;
73585;SDS011;61865;50.232;18.614;2022-08-21T02:00:36;10.63;;;3.85;;
73585;SDS011;61865;50.232;18.614;2022-08-21T02:02:58;8.52;;;4.05;;
73585;SDS011;61865;50.232;18.614;2022-08-21T02:05:20;8.38;;;3.70;;
73585;SDS011;61865;50.232;18.614;2022-08-21T02:07:42;7.68;;;3.63;;
73585;SDS011;61865;50.232;18.614;2022-08-21T02:10:07;5.95;;;3.75;;
73585;SDS011;61865;50.232;18.614;2022-08-21T02:12:31;10.65;;;3.75;;
73585;SDS011;61865;50.232;18.614;2022-08-21T02:14:54;10.02;;;4.10;;
73585;SDS011;61865;50.232;18.614;2022-08-21T02:17:15;7.18;;;3.58;;
73585;SDS011;61865;50.232;18.614;2022-08-21T02:19:37;8.10;;;4.50;;
73585;SDS011;61865;50.232;18.614;2022-08-21T02:21:59;6.95;;;4.35;;
73585;SDS011;61865;50.232;18.614;2022-08-21T02:24:21;9.80;;;4.18;;
73585;SDS011;61865;50.232;18.614;2022-08-21T02:26:43;13.60;;;3.83;;
73585;SDS011;61865;50.232;18.614;2022-08-21T02:29:06;9.00;;;3.90;;
73585;SDS011;61865;50.232;18.614;2022-08-21T02:31:28;8.20;;;3.83;;
73585;SDS011;61865;50.232;18.614;2022-08-21T02:33:51;8.00;;;5.32;;
73585;SDS011;61865;50.232;18.614;2022-08-21T02:36:13;11.30;;;5.57;;
73585;SDS011;61865;50.232;18.614;2022-08-21T02:38:35;9.27;;;5.38;;
73585;SDS011;61865;50.232;18.614;2022-08-21T02:40:59;9.57;;;5.22;;
73585;SDS011;61865;50.232;18.614;2022-08-21T02:43:21;11.27;;;5.70;;
73585;SDS011;61865;50.232;18.614;2022-08-21T02:45:47;11.13;;;5.93;;
73585;SDS011;61865;50.232;18.614;2022-08-21T02:48:10;12.93;;;7.05;;
73585;SDS011;61865;50.232;18.614;2022-08-21T02:50:34;10.40;;;6.05;;
73585;SDS011;61865;50.232;18.614;2022-08-21T02:52:58;9.70;;;5.60;;
73585;SDS011;61865;50.232;18.614;2022-08-21T02:55:21;10.05;;;5.72;;
73585;SDS011;61865;50.232;18.614;2022-08-21T02:57:46;9.38;;;5.97;;
73585;SDS011;61865;50.232;18.614;2022-08-21T03:00:09;8.57;;;5.43;;
73585;SDS011;61865;50.232;18.614;2022-08-21T03:02:33;10.07;;;6.00;;
73585;SDS011;61865;50.232;18.614;2022-08-21T03:04:55;10.98;;;6.03;;
73585;SDS011;61865;50.232;18.614;2022-08-21T03:07:17;9.35;;;5.43;;
73585;SDS011;61865;50.232;18.614;2022-08-21T03:09:38;10.10;;;6.40;;
73585;SDS011;61865;50.232;18.614;2022-08-21T03:12:00;9.20;;;5.90;;
73585;SDS011;61865;50.232;18.614;2022-08-21T03:14:23;10.70;;;6.28;;
73585;SDS011;61865;50.232;18.614;2022-08-21T03:16:45;12.02;;;6.30;;
73585;SDS011;61865;50.232;18.614;2022-08-21T03:19:09;10.60;;;6.78;;
73585;SDS011;61865;50.232;18.614;2022-08-21T03:21:30;19.55;;;6.72;;
73585;SDS011;61865;50.232;18.614;2022-08-21T03:23:53;9.65;;;6.20;;
73585;SDS011;61865;50.232;18.614;2022-08-21T03:26:15;10.40;;;6.53;;
73585;SDS011;61865;50.232;18.614;2022-08-21T03:28:38;10.80;;;6.68;;
73585;SDS011;61865;50.232;18.614;2022-08-21T03:31:00;13.13;;;6.60;;
73585;SDS011;61865;50.232;18.614;2022-08-21T03:33:22;12.18;;;6.30;;
73585;SDS011;61865;50.232;18.614;2022-08-21T03:35:47;10.60;;;6.65;;
73585;SDS011;61865;50.232;18.614;2022-08-21T03:38:16;13.77;;;7.82;;
73585;SDS011;61865;50.232;18.614;2022-08-21T03:40:39;10.05;;;6.53;;
73585;SDS011;61865;50.232;18.614;2022-08-21T03:43:01;12.45;;;6.60;;
73585;SDS011;61865;50.232;18.614;2022-08-21T03:45:24;12.60;;;6.88;;
73585;SDS011;61865;50.232;18.614;2022-08-21T03:47:50;10.30;;;6.50;;
73585;SDS011;61865;50.232;18.614;2022-08-21T03:50:13;12.70;;;6.82;;
73585;SDS011;61865;50.232;18.614;2022-08-21T03:52:38;10.18;;;6.93;;
73585;SDS011;61865;50.232;18.614;2022-08-21T03:55:00;9.68;;;6.65;;
73585;SDS011;61865;50.232;18.614;2022-08-21T03:57:22;14.27;;;6.32;;
73585;SDS011;61865;50.232;18.614;2022-08-21T03:59:44;13.25;;;6.80;;
73585;SDS011;61865;50.232;18.614;2022-08-21T04:02:06;10.80;;;6.82;;
73585;SDS011;61865;50.232;18.614;2022-08-21T04:04:28;10.45;;;6.35;;
73585;SDS011;61865;50.232;18.614;2022-08-21T04:06:50;11.27;;;6.35;;
73585;SDS011;61865;50.232;18.614;2022-08-21T04:09:14;13.98;;;6.20;;
73585;SDS011;61865;50.232;18.614;2022-08-21T04:11:35;9.13;;;6.07;;
73585;SDS011;61865;50.232;18.614;2022-08-21T04:13:57;14.13;;;6.05;;
73585;SDS011;61865;50.232;18.614;2022-08-21T04:16:19;11.93;;;6.20;;
73585;SDS011;61865;50.232;18.614;2022-08-21T04:18:41;11.23;;;6.40;;
73585;SDS011;61865;50.232;18.614;2022-08-21T04:21:03;13.82;;;6.32;;
73585;SDS011;61865;50.232;18.614;2022-08-21T04:23:27;10.05;;;6.32;;
73585;SDS011;61865;50.232;18.614;2022-08-21T04:25:51;13.50;;;6.20;;
73585;SDS011;61865;50.232;18.614;2022-08-21T04:28:13;10.38;;;6.28;;
73585;SDS011;61865;50.232;18.614;2022-08-21T04:30:35;15.07;;;7.50;;
73585;SDS011;61865;50.232;18.614;2022-08-21T04:32:57;15.27;;;7.00;;
73585;SDS011;61865;50.232;18.614;2022-08-21T04:35:20;18.65;;;7.93;;
73585;SDS011;61865;50.232;18.614;2022-08-21T04:37:43;11.30;;;6.57;;
73585;SDS011;61865;50.232;18.614;2022-08-21T04:40:05;12.30;;;6.38;;
73585;SDS011;61865;50.232;18.614;2022-08-21T04:42:31;16.90;;;7.00;;
73585;SDS011;61865;50.232;18.614;2022-08-21T04:44:53;13.70;;;7.72;;
73585;SDS011;61865;50.232;18.614;2022-08-21T04:47:16;11.18;;;6.10;;
73585;SDS011;61865;50.232;18.614;2022-08-21T04:49:38;13.70;;;5.95;;
73585;SDS011;61865;50.232;18.614;2022-08-21T04:52:01;14.13;;;6.57;;
73585;SDS011;61865;50.232;18.614;2022-08-21T04:54:23;9.15;;;6.38;;
73585;SDS011;61865;50.232;18.614;2022-08-21T04:56:47;24.63;;;6.50;;
73585;SDS011;61865;50.232;18.614;2022-08-21T04:59:14;10.93;;;6.18;;
73585;SDS011;61865;50.232;18.614;2022-08-21T05:01:47;11.00;;;6.10;;
73585;SDS011;61865;50.232;18.614;2022-08-21T05:04:11;14.63;;;6.38;;
73585;SDS011;61865;50.232;18.614;2022-08-21T05:06:36;13.43;;;6.30;;
73585;SDS011;61865;50.232;18.614;2022-08-21T05:09:02;11.63;;;6.18;;
73585;SDS011;61865;50.232;18.614;2022-08-21T05:11:25;16.58;;;6.47;;
73585;SDS011;61865;50.232;18.614;2022-08-21T05:13:47;10.73;;;5.97;;
73585;SDS011;61865;50.232;18.614;2022-08-21T05:16:11;10.70;;;5.78;;
73585;SDS011;61865;50.232;18.614;2022-08-21T05:18:32;13.75;;;6.05;;
73585;SDS011;61865;50.232;18.614;2022-08-21T05:20:54;12.23;;;6.68;;
73585;SDS011;61865;50.232;18.614;2022-08-21T05:23:17;13.20;;;6.13;;
73585;SDS011;61865;50.232;18.614;2022-08-21T05:25:39;15.05;;;6.47;;
73585;SDS011;61865;50.232;18.614;2022-08-21T05:28:01;18.45;;;7.15;;
73585;SDS011;61865;50.232;18.614;2022-08-21T05:30:23;16.42;;;6.45;;
73585;SDS011;61865;50.232;18.614;2022-08-21T05:32:47;12.38;;;4.95;;
73585;SDS011;61865;50.232;18.614;2022-08-21T05:35:09;9.05;;;4.40;;
73585;SDS011;61865;50.232;18.614;2022-08-21T05:37:31;6.82;;;4.30;;
73585;SDS011;61865;50.232;18.614;2022-08-21T05:39:53;6.72;;;3.45;;
73585;SDS011;61865;50.232;18.614;2022-08-21T05:42:16;5.53;;;2.58;;
73585;SDS011;61865;50.232;18.614;2022-08-21T05:44:37;3.97;;;2.40;;
73585;SDS011;61865;50.232;18.614;2022-08-21T05:47:02;3.78;;;2.17;;
73585;SDS011;61865;50.232;18.614;2022-08-21T05:49:27;3.65;;;2.15;;
73585;SDS011;61865;50.232;18.614;2022-08-21T05:51:49;3.63;;;1.92;;
73585;SDS011;61865;50.232;18.614;2022-08-21T05:54:10;5.18;;;2.30;;
73585;SDS011;61865;50.232;18.614;2022-08-21T05:56:32;4.28;;;2.58;;
73585;SDS011;61865;50.232;18.614;2022-08-21T05:58:54;5.32;;;2.85;;
73585;SDS011;61865;50.232;18.614;2022-08-21T06:01:16;5.22;;;2.80;;
73585;SDS011;61865;50.232;18.614;2022-08-21T06:03:39;4.90;;;2.58;;
73585;SDS011;61865;50.232;18.614;2022-08-21T06:06:04;5.18;;;2.65;;
73585;SDS011;61865;50.232;18.614;2022-08-21T06:08:27;6.55;;;2.70;;
73585;SDS011;61865;50.232;18.614;2022-08-21T06:10:50;5.60;;;2.60;;
73585;SDS011;61865;50.232;18.614;2022-08-21T06:13:13;4.35;;;2.40;;
73585;SDS011;61865;50.232;18.614;2022-08-21T06:15:36;6.20;;;2.50;;
73585;SDS011;61865;50.232;18.614;2022-08-21T06:17:58;6.13;;;2.75;;
73585;SDS011;61865;50.232;18.614;2022-08-21T06:20:20;4.40;;;2.33;;
73585;SDS011;61865;50.232;18.614;2022-08-21T06:22:43;3.53;;;2.17;;
73585;SDS011;61865;50.232;18.614;2022-08-21T06:25:06;4.32;;;2.25;;
73585;SDS011;61865;50.232;18.614;2022-08-21T06:27:29;5.93;;;2.38;;
73585;SDS011;61865;50.232;18.614;2022-08-21T06:29:51;5.47;;;2.25;;
73585;SDS011;61865;50.232;18.614;2022-08-21T06:32:13;2.83;;;1.80;;
73585;SDS011;61865;50.232;18.614;2022-08-21T06:34:35;2.38;;;1.90;;
73585;SDS011;61865;50.232;18.614;2022-08-21T06:36:58;4.78;;;2.05;;
73585;SDS011;61865;50.232;18.614;2022-08-21T06:39:21;3.10;;;1.77;;
73585;SDS011;61865;50.232;18.614;2022-08-21T06:41:43;4.03;;;1.98;;
73585;SDS011;61865;50.232;18.614;2022-08-21T06:44:05;2.35;;;1.77;;
73585;SDS011;61865;50.232;18.614;2022-08-21T06:46:28;3.92;;;1.45;;
73585;SDS011;61865;50.232;18.614;2022-08-21T06:48:51;2.70;;;1.55;;
73585;SDS011;61865;50.232;18.614;2022-08-21T06:51:13;5.03;;;1.85;;
73585;SDS011;61865;50.232;18.614;2022-08-21T06:53:35;6.10;;;1.60;;
73585;SDS011;61865;50.232;18.614;2022-08-21T06:55:58;3.20;;;1.58;;
73585;SDS011;61865;50.232;18.614;2022-08-21T06:58:20;2.33;;;1.60;;
73585;SDS011;61865;50.232;18.614;2022-08-21T07:00:43;3.10;;;1.30;;
73585;SDS011;61865;50.232;18.614;2022-08-21T07:03:15;3.88;;;1.45;;
73585;SDS011;61865;50.232;18.614;2022-08-21T07:05:38;2.33;;;1.20;;
73585;SDS011;61865;50.232;18.614;2022-08-21T07:07:59;3.33;;;1.70;;
73585;SDS011;61865;50.232;18.614;2022-08-21T07:10:21;2.75;;;1.13;;
73585;SDS011;61865;50.232;18.614;2022-08-21T07:12:44;1.30;;;1.00;;
73585;SDS011;61865;50.232;18.614;2022-08-21T07:15:07;2.08;;;1.25;;
73585;SDS011;61865;50.232;18.614;2022-08-21T07:17:29;2.50;;;1.23;;
73585;SDS011;61865;50.232;18.614;2022-08-21T07:19:51;1.70;;;1.13;;
73585;SDS011;61865;50.232;18.614;2022-08-21T07:22:13;3.33;;;1.30;;
73585;SDS011;61865;50.232;18.614;2022-08-21T07:24:37;2.53;;;1.38;;
73585;SDS011;61865;50.232;18.614;2022-08-21T07:26:59;1.42;;;1.10;;
73585;SDS011;61865;50.232;18.614;2022-08-21T07:29:22;1.55;;;1.17;;
73585;SDS011;61865;50.232;18.614;2022-08-21T07:31:44;2.10;;;1.27;;
73585;SDS011;61865;50.232;18.614;2022-08-21T07:34:06;2.95;;;1.17;;
73585;SDS011;61865;50.232;18.614;2022-08-21T07:36:29;4.10;;;1.65;;
73585;SDS011;61865;50.232;18.614;2022-08-21T07:38:51;1.80;;;1.30;;
73585;SDS011;61865;50.232;18.614;2022-08-21T07:41:13;2.08;;;1.30;;
73585;SDS011;61865;50.232;18.614;2022-08-21T07:43:39;2.92;;;1.45;;
73585;SDS011;61865;50.232;18.614;2022-08-21T07:46:02;3.10;;;1.60;;
73585;SDS011;61865;50.232;18.614;2022-08-21T07:48:24;3.33;;;1.92;;
73585;SDS011;61865;50.232;18.614;2022-08-21T07:50:46;4.55;;;2.30;;
73585;SDS011;61865;50.232;18.614;2022-08-21T07:53:08;5.22;;;2.10;;
73585;SDS011;61865;50.232;18.614;2022-08-21T07:55:30;5.80;;;2.42;;
73585;SDS011;61865;50.232;18.614;2022-08-21T07:57:52;6.30;;;2.05;;
73585;SDS011;61865;50.232;18.614;2022-08-21T08:00:15;4.18;;;2.20;;
73585;SDS011;61865;50.232;18.614;2022-08-21T08:02:43;6.75;;;2.60;;
73585;SDS011;61865;50.232;18.614;2022-08-21T08:05:07;4.45;;;2.33;;
73585;SDS011;61865;50.232;18.614;2022-08-21T08:07:31;4.18;;;2.40;;
73585;SDS011;61865;50.232;18.614;2022-08-21T08:09:53;4.30;;;2.38;;
73585;SDS011;61865;50.232;18.614;2022-08-21T08:12:15;5.00;;;2.40;;
73585;SDS011;61865;50.232;18.614;2022-08-21T08:14:37;3.92;;;2.35;;
73585;SDS011;61865;50.232;18.614;2022-08-21T08:16:59;5.03;;;2.00;;
73585;SDS011;61865;50.232;18.614;2022-08-21T08:19:22;3.72;;;2.00;;
73585;SDS011;61865;50.232;18.614;2022-08-21T08:21:44;5.32;;;2.22;;
73585;SDS011;61865;50.232;18.614;2022-08-21T08:24:06;4.57;;;2.17;;
73585;SDS011;61865;50.232;18.614;2022-08-21T08:26:28;2.97;;;1.95;;
73585;SDS011;61865;50.232;18.614;2022-08-21T08:28:50;3.33;;;1.95;;
73585;SDS011;61865;50.232;18.614;2022-08-21T08:31:12;3.78;;;2.00;;
73585;SDS011;61865;50.232;18.614;2022-08-21T08:33:34;4.25;;;2.20;;
73585;SDS011;61865;50.232;18.614;2022-08-21T08:35:57;3.65;;;2.20;;
73585;SDS011;61865;50.232;18.614;2022-08-21T08:38:20;3.92;;;2.50;;
73585;SDS011;61865;50.232;18.614;2022-08-21T08:40:44;7.30;;;2.67;;
73585;SDS011;61865;50.232;18.614;2022-08-21T08:43:11;5.32;;;2.70;;
73585;SDS011;61865;50.232;18.614;2022-08-21T08:45:35;5.63;;;3.25;;
73585;SDS011;61865;50.232;18.614;2022-08-21T08:48:00;8.77;;;4.97;;
73585;SDS011;61865;50.232;18.614;2022-08-21T08:50:28;7.95;;;5.18;;
73585;SDS011;61865;50.232;18.614;2022-08-21T08:53:02;7.88;;;4.70;;
73585;SDS011;61865;50.232;18.614;2022-08-21T08:55:28;7.78;;;5.15;;
73585;SDS011;61865;50.232;18.614;2022-08-21T08:57:54;9.55;;;6.65;;
73585;SDS011;61865;50.232;18.614;2022-08-21T09:00:17;9.07;;;7.55;;
73585;SDS011;61865;50.232;18.614;2022-08-21T09:02:41;12.07;;;9.40;;
73585;SDS011;61865;50.232;18.614;2022-08-21T09:05:04;14.35;;;10.15;;
73585;SDS011;61865;50.232;18.614;2022-08-21T09:07:30;13.10;;;10.10;;
73585;SDS011;61865;50.232;18.614;2022-08-21T09:10:06;19.42;;;11.00;;
73585;SDS011;61865;50.232;18.614;2022-08-21T09:12:38;18.63;;;10.77;;
73585;SDS011;61865;50.232;18.614;2022-08-21T09:15:10;17.33;;;11.07;;
73585;SDS011;61865;50.232;18.614;2022-08-21T09:17:46;15.05;;;11.10;;
73585;SDS011;61865;50.232;18.614;2022-08-21T09:20:28;13.18;;;10.85;;
73585;SDS011;61865;50.232;18.614;2022-08-21T09:25:27;12.80;;;10.10;;
73585;SDS011;61865;50.232;18.614;2022-08-21T09:27:52;13.55;;;9.32;;
73585;SDS011;61865;50.232;18.614;2022-08-21T09:30:14;12.57;;;9.30;;
73585;SDS011;61865;50.232;18.614;2022-08-21T09:32:37;13.52;;;9.27;;
73585;SDS011;61865;50.232;18.614;2022-08-21T09:35:01;10.75;;;8.18;;
73585;SDS011;61865;50.232;18.614;2022-08-21T09:37:27;11.35;;;7.32;;
73585;SDS011;61865;50.232;18.614;2022-08-21T09:39:50;8.93;;;6.78;;
73585;SDS011;61865;50.232;18.614;2022-08-21T09:42:20;9.70;;;6.75;;
73585;SDS011;61865;50.232;18.614;2022-08-21T09:44:45;16.27;;;6.50;;
73585;SDS011;61865;50.232;18.614;2022-08-21T09:47:07;10.48;;;6.78;;
73585;SDS011;61865;50.232;18.614;2022-08-21T09:49:33;12.90;;;8.45;;
73585;SDS011;61865;50.232;18.614;2022-08-21T09:51:56;13.25;;;6.82;;
73585;SDS011;61865;50.232;18.614;2022-08-21T09:54:20;11.90;;;8.02;;
73585;SDS011;61865;50.232;18.614;2022-08-21T09:56:53;12.77;;;7.25;;
73585;SDS011;61865;50.232;18.614;2022-08-21T09:59:35;15.35;;;6.32;;
73585;SDS011;61865;50.232;18.614;2022-08-21T10:01:58;8.15;;;6.07;;
73585;SDS011;61865;50.232;18.614;2022-08-21T10:04:23;9.55;;;5.28;;
73585;SDS011;61865;50.232;18.614;2022-08-21T10:06:48;8.35;;;5.55;;
73585;SDS011;61865;50.232;18.614;2022-08-21T10:09:11;33.63;;;6.85;;
73585;SDS011;61865;50.232;18.614;2022-08-21T10:11:34;44.05;;;9.23;;
73585;SDS011;61865;50.232;18.614;2022-08-21T10:13:58;31.55;;;8.10;;
73585;SDS011;61865;50.232;18.614;2022-08-21T10:16:32;17.75;;;7.30;;
73585;SDS011;61865;50.232;18.614;2022-08-21T10:19:10;16.63;;;6.03;;
73585;SDS011;61865;50.232;18.614;2022-08-21T10:21:40;10.35;;;5.72;;
73585;SDS011;61865;50.232;18.614;2022-08-21T10:24:20;15.45;;;6.40;;
73585;SDS011;61865;50.232;18.614;2022-08-21T10:26:51;10.32;;;5.63;;
73585;SDS011;61865;50.232;18.614;2022-08-21T10:29:28;10.30;;;3.83;;
73585;SDS011;61865;50.232;18.614;2022-08-21T10:32:12;11.55;;;3.28;;
73585;SDS011;61865;50.232;18.614;2022-08-21T10:34:43;10.15;;;3.70;;
73585;SDS011;61865;50.232;18.614;2022-08-21T10:37:16;15.50;;;3.65;;
73585;SDS011;61865;50.232;18.614;2022-08-21T10:39:46;104.22;;;5.93;;
73585;SDS011;61865;50.232;18.614;2022-08-21T10:42:28;47.15;;;4.60;;
73585;SDS011;61865;50.232;18.614;2022-08-21T10:45:00;18.42;;;4.05;;
73585;SDS011;61865;50.232;18.614;2022-08-21T10:47:34;46.17;;;4.97;;
73585;SDS011;61865;50.232;18.614;2022-08-21T10:50:04;48.35;;;3.97;;
73585;SDS011;61865;50.232;18.614;2022-08-21T10:52:36;30.20;;;5.07;;
73585;SDS011;61865;50.232;18.614;2022-08-21T10:55:11;42.67;;;5.30;;
73585;SDS011;61865;50.232;18.614;2022-08-21T10:57:50;13.95;;;3.67;;
73585;SDS011;61865;50.232;18.614;2022-08-21T11:00:17;14.70;;;4.32;;
73585;SDS011;61865;50.232;18.614;2022-08-21T11:02:45;15.65;;;4.18;;
73585;SDS011;61865;50.232;18.614;2022-08-21T11:05:14;16.58;;;3.85;;
73585;SDS011;61865;50.232;18.614;2022-08-21T11:07:42;11.85;;;4.05;;
73585;SDS011;61865;50.232;18.614;2022-08-21T11:10:10;37.60;;;4.60;;
73585;SDS011;61865;50.232;18.614;2022-08-21T11:12:39;10.75;;;3.30;;
73585;SDS011;61865;50.232;18.614;2022-08-21T11:15:04;3.53;;;2.70;;
73585;SDS011;61865;50.232;18.614;2022-08-21T11:17:39;6.05;;;2.58;;
73585;SDS011;61865;50.232;18.614;2022-08-21T11:20:10;10.00;;;2.60;;
73585;SDS011;61865;50.232;18.614;2022-08-21T11:22:38;4.35;;;2.60;;
73585;SDS011;61865;50.232;18.614;2022-08-21T11:25:06;3.35;;;2.60;;
73585;SDS011;61865;50.232;18.614;2022-08-21T11:27:38;6.93;;;2.30;;
73585;SDS011;61865;50.232;18.614;2022-08-21T11:30:04;7.45;;;2.40;;
73585;SDS011;61865;50.232;18.614;2022-08-21T11:32:34;4.47;;;2.40;;
73585;SDS011;61865;50.232;18.614;2022-08-21T11:35:18;5.25;;;2.13;;
73585;SDS011;61865;50.232;18.614;2022-08-21T11:37:48;2.40;;;2.10;;
73585;SDS011;61865;50.232;18.614;2022-08-21T11:40:24;4.10;;;2.60;;
73585;SDS011;61865;50.232;18.614;2022-08-21T11:42:59;3.25;;;2.55;;
73585;SDS011;61865;50.232;18.614;2022-08-21T11:45:31;4.82;;;2.10;;
73585;SDS011;61865;50.232;18.614;2022-08-21T11:48:05;4.75;;;2.40;;
73585;SDS011;61865;50.232;18.614;2022-08-21T11:50:34;3.65;;;2.50;;
73585;SDS011;61865;50.232;18.614;2022-08-21T11:52:59;3.63;;;2.75;;
73585;SDS011;61865;50.232;18.614;2022-08-21T11:55:26;4.00;;;2.80;;
73585;SDS011;61865;50.232;18.614;2022-08-21T11:57:53;3.45;;;2.55;;
73585;SDS011;61865;50.232;18.614;2022-08-21T12:00:19;5.18;;;2.50;;
73585;SDS011;61865;50.232;18.614;2022-08-21T12:02:47;3.17;;;2.40;;
73585;SDS011;61865;50.232;18.614;2022-08-21T12:05:23;4.57;;;2.90;;
73585;SDS011;61865;50.232;18.614;2022-08-21T12:07:59;2.83;;;2.45;;
73585;SDS011;61865;50.232;18.614;2022-08-21T12:10:30;4.22;;;2.70;;
73585;SDS011;61865;50.232;18.614;2022-08-21T12:13:05;5.85;;;2.70;;
73585;SDS011;61865;50.232;18.614;2022-08-21T12:15:30;4.53;;;2.92;;
73585;SDS011;61865;50.232;18.614;2022-08-21T12:17:53;4.13;;;2.88;;
73585;SDS011;61865;50.232;18.614;2022-08-21T12:20:18;3.72;;;3.00;;
73585;SDS011;61865;50.232;18.614;2022-08-21T12:23:02;5.88;;;3.08;;
73585;SDS011;61865;50.232;18.614;2022-08-21T12:25:26;4.78;;;3.08;;
73585;SDS011;61865;50.232;18.614;2022-08-21T12:28:02;4.07;;;3.25;;
73585;SDS011;61865;50.232;18.614;2022-08-21T12:30:33;8.65;;;2.97;;
73585;SDS011;61865;50.232;18.614;2022-08-21T12:32:57;4.88;;;3.25;;
73585;SDS011;61865;50.232;18.614;2022-08-21T12:35:21;4.38;;;3.10;;
73585;SDS011;61865;50.232;18.614;2022-08-21T12:37:52;4.10;;;2.92;;
73585;SDS011;61865;50.232;18.614;2022-08-21T12:40:22;6.10;;;3.30;;
73585;SDS011;61865;50.232;18.614;2022-08-21T12:42:46;5.68;;;3.65;;
73585;SDS011;61865;50.232;18.614;2022-08-21T12:45:13;4.95;;;3.55;;
73585;SDS011;61865;50.232;18.614;2022-08-21T12:47:43;5.53;;;3.40;;
73585;SDS011;61865;50.232;18.614;2022-08-21T12:50:11;6.22;;;4.13;;
73585;SDS011;61865;50.232;18.614;2022-08-21T12:52:40;5.47;;;3.90;;
73585;SDS011;61865;50.232;18.614;2022-08-21T12:55:06;4.97;;;3.95;;
73585;SDS011;61865;50.232;18.614;2022-08-21T12:57:32;5.50;;;4.05;;
73585;SDS011;61865;50.232;18.614;2022-08-21T12:59:58;5.13;;;3.70;;
73585;SDS011;61865;50.232;18.614;2022-08-21T13:02:25;6.63;;;3.95;;
73585;SDS011;61865;50.232;18.614;2022-08-21T13:04:50;7.18;;;3.88;;
73585;SDS011;61865;50.232;18.614;2022-08-21T13:07:15;6.50;;;3.92;;
73585;SDS011;61865;50.232;18.614;2022-08-21T13:09:46;6.25;;;4.10;;
73585;SDS011;61865;50.232;18.614;2022-08-21T13:12:14;5.80;;;3.78;;
73585;SDS011;61865;50.232;18.614;2022-08-21T13:14:39;5.25;;;3.55;;
73585;SDS011;61865;50.232;18.614;2022-08-21T13:17:03;4.85;;;3.50;;
73585;SDS011;61865;50.232;18.614;2022-08-21T13:19:27;5.10;;;4.10;;
73585;SDS011;61865;50.232;18.614;2022-08-21T13:21:49;5.28;;;4.00;;
73585;SDS011;61865;50.232;18.614;2022-08-21T13:24:14;5.72;;;4.20;;
73585;SDS011;61865;50.232;18.614;2022-08-21T13:26:38;7.75;;;4.50;;
73585;SDS011;61865;50.232;18.614;2022-08-21T13:29:07;6.53;;;4.65;;
73585;SDS011;61865;50.232;18.614;2022-08-21T13:31:30;6.30;;;4.63;;
73585;SDS011;61865;50.232;18.614;2022-08-21T13:33:53;7.03;;;4.88;;
73585;SDS011;61865;50.232;18.614;2022-08-21T13:36:17;8.23;;;5.10;;
73585;SDS011;61865;50.232;18.614;2022-08-21T13:38:46;7.20;;;5.43;;
73585;SDS011;61865;50.232;18.614;2022-08-21T13:41:22;15.15;;;7.35;;
73585;SDS011;61865;50.232;18.614;2022-08-21T13:43:49;12.90;;;8.95;;
73585;SDS011;61865;50.232;18.614;2022-08-21T13:46:19;17.38;;;11.18;;
73585;SDS011;61865;50.232;18.614;2022-08-21T13:48:45;19.13;;;11.48;;
73585;SDS011;61865;50.232;18.614;2022-08-21T13:51:07;15.55;;;11.25;;
73585;SDS011;61865;50.232;18.614;2022-08-21T13:53:31;17.88;;;11.50;;
73585;SDS011;61865;50.232;18.614;2022-08-21T13:55:55;13.82;;;10.45;;
73585;SDS011;61865;50.232;18.614;2022-08-21T13:58:23;19.92;;;12.18;;
73585;SDS011;61865;50.232;18.614;2022-08-21T14:00:47;18.67;;;12.73;;
73585;SDS011;61865;50.232;18.614;2022-08-21T14:03:13;22.67;;;13.43;;
73585;SDS011;61865;50.232;18.614;2022-08-21T14:05:47;25.55;;;16.17;;
73585;SDS011;61865;50.232;18.614;2022-08-21T14:08:10;23.77;;;15.98;;
73585;SDS011;61865;50.232;18.614;2022-08-21T14:10:37;24.92;;;16.25;;
73585;SDS011;61865;50.232;18.614;2022-08-21T14:13:04;26.13;;;18.05;;
73585;SDS011;61865;50.232;18.614;2022-08-21T14:15:29;27.73;;;17.13;;
73585;SDS011;61865;50.232;18.614;2022-08-21T14:17:52;33.08;;;18.17;;